Terminal Aerodrome Forecast
Issued by NWS

Home | Current Version | Previous Version | Text Only | Print | Product List | Glossary On
Versions: 1 2 3 4 5 6 7 8 9 10 11 12 13 14 15 16 17 18
000
FTUS43 KDMX 200520
TAFMCW
TAF
KMCW 200520Z 2006/2106 17008KT P6SM SCT050 BKN080
     FM201000 19010KT P6SM VCSH SCT035 BKN050
     FM201800 20012KT P6SM SHRA SCT020 BKN035
     FM202100 19010KT P6SM SHRA VCTS SCT020CB BKN035=

USA.gov is the U.S. government's official web portal to all federal, state and local government web resources and services.